Time;durP1;ratioP1;P1;durP2;ratioP2;P2;SDS_P1;SDS_P2;PMS_P1;PMS_P2;Temp;Humidity;BMP_temperature;BMP_pressure;BME280_temperature;BME280_humidity;BME280_pressure;Samples;Min_cycle;Max_cycle;Signal;HPM_P1;HPM_P2
2022/07/10 00:00:35;;;;;;;3.63;1.23;;;;;;;;;;5026044;28;20232;-54
2022/07/10 00:03:02;;;;;;;5.03;1.55;;;;;;;;;;5023606;28;20237;-52
2022/07/10 00:05:28;;;;;;;1.85;1.00;;;;;;;;;;5034774;28;20227;-52
2022/07/10 00:07:54;;;;;;;2.35;0.98;;;;;;;;;;5041383;28;20244;-52
2022/07/10 00:10:22;;;;;;;5.70;1.50;;;;;;;;;;5030643;28;20227;-52
2022/07/10 00:12:49;;;;;;;4.22;2.03;;;;;;;;;;5043750;28;20700;-51
2022/07/10 00:15:15;;;;;;;2.40;1.35;;;;;;;;;;5027329;28;20229;-53
2022/07/10 00:17:43;;;;;;;2.88;1.13;;;;;;;;;;5019785;28;20315;-53
2022/07/10 00:20:11;;;;;;;6.43;1.92;;;;;;;;;;5025252;28;20710;-51
2022/07/10 00:22:37;;;;;;;5.28;1.52;;;;;;;;;;5026207;28;20728;-51
2022/07/10 00:25:04;;;;;;;5.75;1.50;;;;;;;;;;5023655;28;20236;-56
2022/07/10 00:27:30;;;;;;;3.90;1.00;;;;;;;;;;5031263;28;20236;-52
2022/07/10 00:29:57;;;;;;;4.97;1.55;;;;;;;;;;5038207;28;20225;-52
2022/07/10 00:32:23;;;;;;;4.53;1.52;;;;;;;;;;5037298;28;20224;-51
2022/07/10 00:34:51;;;;;;;2.75;1.80;;;;;;;;;;5035734;28;20251;-53
2022/07/10 00:37:18;;;;;;;3.42;1.48;;;;;;;;;;5026588;28;20239;-51
2022/07/10 00:39:44;;;;;;;8.20;2.50;;;;;;;;;;5053054;28;20668;-52
2022/07/10 00:42:13;;;;;;;3.45;1.55;;;;;;;;;;5054750;28;20613;-53
2022/07/10 00:44:39;;;;;;;3.63;1.52;;;;;;;;;;5034065;28;20740;-52
2022/07/10 00:47:06;;;;;;;3.60;1.30;;;;;;;;;;5038215;28;20322;-52
2022/07/10 00:49:32;;;;;;;2.42;1.35;;;;;;;;;;5031137;28;20597;-52
2022/07/10 00:52:01;;;;;;;4.05;1.65;;;;;;;;;;5025587;28;20235;-52
2022/07/10 00:54:27;;;;;;;1.60;1.17;;;;;;;;;;5025391;28;20263;-53
2022/07/10 00:56:54;;;;;;;3.67;1.40;;;;;;;;;;5025939;28;20243;-52
2022/07/10 00:59:20;;;;;;;5.65;1.38;;;;;;;;;;5021919;28;20233;-51
2022/07/10 01:01:48;;;;;;;8.65;1.73;;;;;;;;;;5006218;28;20320;-51
2022/07/10 01:04:14;;;;;;;1.75;0.98;;;;;;;;;;5023015;28;20236;-53
2022/07/10 01:06:40;;;;;;;2.33;1.17;;;;;;;;;;5025875;28;20240;-54
2022/07/10 01:09:08;;;;;;;4.57;0.90;;;;;;;;;;5025421;28;20235;-52
2022/07/10 01:11:35;;;;;;;4.57;1.63;;;;;;;;;;5023251;28;20244;-51
2022/07/10 01:14:02;;;;;;;1.52;0.90;;;;;;;;;;5034749;28;20555;-52
2022/07/10 01:16:29;;;;;;;2.97;1.13;;;;;;;;;;5034785;28;20240;-51
2022/07/10 01:18:55;;;;;;;2.90;1.00;;;;;;;;;;5032814;28;20770;-50
2022/07/10 01:21:27;;;;;;;2.05;1.15;;;;;;;;;;5047119;28;20235;-54
2022/07/10 01:23:53;;;;;;;4.05;1.08;;;;;;;;;;5051526;28;20251;-52
2022/07/10 01:26:20;;;;;;;3.05;1.00;;;;;;;;;;5050193;28;20551;-53
2022/07/10 01:28:48;;;;;;;3.95;1.08;;;;;;;;;;5031150;28;20304;-52
2022/07/10 01:31:14;;;;;;;1.63;0.82;;;;;;;;;;5026304;28;20740;-53
2022/07/10 01:33:41;;;;;;;4.50;1.17;;;;;;;;;;5025496;28;20257;-53
2022/07/10 01:36:08;;;;;;;4.75;1.00;;;;;;;;;;5032738;28;20231;-54
2022/07/10 01:38:36;;;;;;;3.25;1.20;;;;;;;;;;5043136;28;20255;-52
2022/07/10 01:41:02;;;;;;;3.08;1.05;;;;;;;;;;5041457;28;20223;-53
2022/07/10 01:43:28;;;;;;;2.97;0.68;;;;;;;;;;5030760;28;20554;-52
2022/07/10 01:45:55;;;;;;;4.30;1.17;;;;;;;;;;5033132;28;21062;-53
2022/07/10 01:48:21;;;;;;;3.80;1.13;;;;;;;;;;5023583;28;20225;-52
2022/07/10 01:50:47;;;;;;;1.50;1.00;;;;;;;;;;5024039;28;20236;-52
2022/07/10 01:53:14;;;;;;;1.70;0.77;;;;;;;;;;5025157;28;20556;-52
2022/07/10 01:55:41;;;;;;;2.72;0.60;;;;;;;;;;5025212;28;20449;-52
2022/07/10 01:58:08;;;;;;;3.72;0.88;;;;;;;;;;5034824;28;20243;-52
2022/07/10 02:00:34;;;;;;;4.03;1.30;;;;;;;;;;5028320;28;20236;-53
2022/07/10 02:05:44;;;;;;;3.22;0.90;;;;;;;;;;5040382;28;20231;-52
2022/07/10 02:08:10;;;;;;;3.03;0.95;;;;;;;;;;5024818;28;20757;-51
2022/07/10 02:10:37;;;;;;;1.52;0.90;;;;;;;;;;5040386;28;20232;-52
2022/07/10 02:13:04;;;;;;;3.80;0.60;;;;;;;;;;5045684;28;20628;-52
2022/07/10 02:15:31;;;;;;;2.08;1.08;;;;;;;;;;5045084;28;20574;-52
2022/07/10 02:17:57;;;;;;;5.75;1.23;;;;;;;;;;5045314;28;20315;-52
2022/07/10 02:20:23;;;;;;;4.82;1.10;;;;;;;;;;5044001;28;20232;-52
2022/07/10 02:22:50;;;;;;;2.35;0.88;;;;;;;;;;5040943;28;20246;-52
2022/07/10 02:25:16;;;;;;;2.70;0.82;;;;;;;;;;5036320;28;20231;-52
2022/07/10 02:27:42;;;;;;;1.58;0.80;;;;;;;;;;5044998;28;20234;-52
2022/07/10 02:30:10;;;;;;;5.30;1.10;;;;;;;;;;5043840;28;20230;-53
2022/07/10 02:32:37;;;;;;;3.72;0.70;;;;;;;;;;5044575;28;20289;-51
2022/07/10 02:35:04;;;;;;;3.22;1.27;;;;;;;;;;5044764;28;20249;-53
2022/07/10 02:37:30;;;;;;;2.45;0.90;;;;;;;;;;5037178;28;20225;-51
2022/07/10 02:39:56;;;;;;;3.28;1.08;;;;;;;;;;5031738;28;20237;-52
2022/07/10 02:42:23;;;;;;;1.58;0.80;;;;;;;;;;5042246;28;20437;-52
2022/07/10 02:44:49;;;;;;;3.65;1.10;;;;;;;;;;5048133;28;20244;-53
2022/07/10 02:47:17;;;;;;;1.42;0.82;;;;;;;;;;5044736;28;20228;-52
2022/07/10 02:49:44;;;;;;;2.85;0.82;;;;;;;;;;5047790;28;20238;-52
2022/07/10 02:52:10;;;;;;;4.00;0.95;;;;;;;;;;5048387;28;20236;-51
2022/07/10 02:54:36;;;;;;;3.05;1.10;;;;;;;;;;5046772;28;20239;-52
2022/07/10 02:57:03;;;;;;;3.25;0.80;;;;;;;;;;5048533;28;20224;-52
2022/07/10 02:59:29;;;;;;;2.75;1.00;;;;;;;;;;5044828;28;20252;-52
2022/07/10 03:01:56;;;;;;;3.17;1.40;;;;;;;;;;5039332;28;20243;-52
2022/07/10 03:04:23;;;;;;;2.47;0.90;;;;;;;;;;5037270;28;20239;-52
2022/07/10 03:06:50;;;;;;;3.30;0.93;;;;;;;;;;5028322;28;20243;-52
2022/07/10 03:09:16;;;;;;;2.83;0.80;;;;;;;;;;5035072;28;20713;-53
2022/07/10 03:11:42;;;;;;;3.58;1.20;;;;;;;;;;5034213;28;20633;-53
2022/07/10 03:14:09;;;;;;;2.53;1.10;;;;;;;;;;5027122;28;20600;-53
2022/07/10 03:16:35;;;;;;;4.03;1.42;;;;;;;;;;5045544;28;20239;-55
2022/07/10 03:19:01;;;;;;;1.65;0.75;;;;;;;;;;5047313;28;20231;-53
2022/07/10 03:21:30;;;;;;;1.45;0.88;;;;;;;;;;5043992;28;20238;-53
2022/07/10 03:23:56;;;;;;;4.88;1.25;;;;;;;;;;5046349;28;20289;-53
2022/07/10 03:26:22;;;;;;;1.52;0.70;;;;;;;;;;5046547;28;20607;-53
2022/07/10 03:28:49;;;;;;;1.02;0.60;;;;;;;;;;5041626;28;20243;-50
2022/07/10 03:31:15;;;;;;;0.98;0.57;;;;;;;;;;5050160;28;20232;-52
2022/07/10 03:33:41;;;;;;;2.22;0.73;;;;;;;;;;5047274;28;20243;-52
2022/07/10 03:36:08;;;;;;;2.25;0.70;;;;;;;;;;5047400;28;20232;-52
2022/07/10 03:38:36;;;;;;;1.27;0.90;;;;;;;;;;5046963;28;20286;-52
2022/07/10 03:41:02;;;;;;;2.40;0.70;;;;;;;;;;5032102;28;20855;-53
2022/07/10 03:43:28;;;;;;;2.75;1.20;;;;;;;;;;5045843;28;20238;-52
2022/07/10 03:45:57;;;;;;;1.83;0.68;;;;;;;;;;5049380;28;20231;-53
2022/07/10 03:48:23;;;;;;;1.45;0.98;;;;;;;;;;5040629;28;20228;-51
2022/07/10 03:50:50;;;;;;;3.03;0.73;;;;;;;;;;5034027;28;20317;-52
2022/07/10 03:53:16;;;;;;;4.88;1.10;;;;;;;;;;5035737;28;20245;-52
2022/07/10 03:55:44;;;;;;;2.35;1.00;;;;;;;;;;5039435;28;20686;-52
2022/07/10 03:58:10;;;;;;;4.25;0.90;;;;;;;;;;5045205;28;20239;-54
2022/07/10 04:00:38;;;;;;;4.13;1.00;;;;;;;;;;5033393;28;20227;-52
2022/07/10 04:03:05;;;;;;;4.72;1.15;;;;;;;;;;5046608;28;20746;-52
2022/07/10 04:05:31;;;;;;;3.88;1.45;;;;;;;;;;5046312;28;20235;-53
2022/07/10 04:07:58;;;;;;;2.13;1.00;;;;;;;;;;5046386;28;20232;-51
2022/07/10 04:10:25;;;;;;;1.50;1.02;;;;;;;;;;5032135;28;20228;-52
2022/07/10 04:12:53;;;;;;;1.05;0.80;;;;;;;;;;5045972;28;20240;-51
2022/07/10 04:15:19;;;;;;;3.60;1.00;;;;;;;;;;5042750;28;20231;-51
2022/07/10 04:17:46;;;;;;;2.28;1.00;;;;;;;;;;5034906;28;20236;-51
2022/07/10 04:20:12;;;;;;;3.92;1.05;;;;;;;;;;5025051;28;20264;-52
2022/07/10 04:22:39;;;;;;;3.10;0.52;;;;;;;;;;5027311;28;20251;-53
2022/07/10 04:25:06;;;;;;;1.15;0.60;;;;;;;;;;5027225;28;20240;-52
2022/07/10 04:27:32;;;;;;;1.10;1.00;;;;;;;;;;5039546;28;20232;-51
2022/07/10 04:30:00;;;;;;;3.45;1.02;;;;;;;;;;5032565;28;20239;-52
2022/07/10 04:32:27;;;;;;;1.45;0.85;;;;;;;;;;5038456;28;20243;-52
2022/07/10 04:34:53;;;;;;;4.55;1.58;;;;;;;;;;5041674;28;20244;-54
2022/07/10 04:37:20;;;;;;;3.08;0.98;;;;;;;;;;5033284;28;20246;-53
2022/07/10 04:39:46;;;;;;;3.97;1.08;;;;;;;;;;5043479;28;20629;-52
2022/07/10 04:42:13;;;;;;;3.67;1.30;;;;;;;;;;5044439;28;20238;-51
2022/07/10 04:44:39;;;;;;;1.77;1.10;;;;;;;;;;5044771;28;20318;-52
2022/07/10 04:47:07;;;;;;;3.88;1.42;;;;;;;;;;5044498;28;20230;-53
2022/07/10 04:49:33;;;;;;;3.13;1.27;;;;;;;;;;5041162;28;20238;-53
2022/07/10 04:52:00;;;;;;;5.15;1.25;;;;;;;;;;5034903;28;20237;-51
2022/07/10 04:54:26;;;;;;;4.03;1.17;;;;;;;;;;5028314;28;20239;-55
2022/07/10 04:56:52;;;;;;;4.28;1.60;;;;;;;;;;5044669;28;20248;-53
2022/07/10 04:59:19;;;;;;;4.47;1.02;;;;;;;;;;5044371;28;20246;-53
2022/07/10 05:01:45;;;;;;;4.47;1.42;;;;;;;;;;5037528;28;20241;-52
2022/07/10 05:04:13;;;;;;;3.38;0.98;;;;;;;;;;5033164;28;20240;-53
2022/07/10 05:06:39;;;;;;;2.72;1.02;;;;;;;;;;5024475;28;20240;-52
2022/07/10 05:09:05;;;;;;;2.25;1.17;;;;;;;;;;5025290;28;20324;-53
2022/07/10 05:11:32;;;;;;;3.95;1.40;;;;;;;;;;5040025;28;20718;-53
2022/07/10 05:13:58;;;;;;;4.35;1.20;;;;;;;;;;5036844;28;20228;-54
2022/07/10 05:16:25;;;;;;;2.90;0.95;;;;;;;;;;5040359;28;20726;-52
2022/07/10 05:18:51;;;;;;;3.75;1.20;;;;;;;;;;5042747;28;20228;-54
2022/07/10 05:21:19;;;;;;;3.67;1.05;;;;;;;;;;5044739;28;20239;-53
2022/07/10 05:23:45;;;;;;;5.00;0.98;;;;;;;;;;5045728;28;20240;-52
2022/07/10 05:26:12;;;;;;;5.38;1.10;;;;;;;;;;5047923;28;20234;-53
2022/07/10 05:28:38;;;;;;;3.22;1.23;;;;;;;;;;5038990;28;20318;-53
2022/07/10 05:31:04;;;;;;;6.20;1.52;;;;;;;;;;5038362;28;20233;-53
2022/07/10 05:33:32;;;;;;;1.45;0.90;;;;;;;;;;5036718;28;20238;-53
2022/07/10 05:35:58;;;;;;;3.38;1.10;;;;;;;;;;5029312;28;20711;-54
2022/07/10 05:38:26;;;;;;;6.93;0.98;;;;;;;;;;5044562;28;20235;-52
2022/07/10 05:40:53;;;;;;;3.40;1.63;;;;;;;;;;5045328;28;20326;-52
2022/07/10 05:43:19;;;;;;;4.53;1.35;;;;;;;;;;5045128;28;20247;-53
2022/07/10 05:45:46;;;;;;;1.30;1.00;;;;;;;;;;5033938;28;20232;-52
2022/07/10 05:48:13;;;;;;;3.17;1.00;;;;;;;;;;5044778;28;20235;-52
2022/07/10 05:50:39;;;;;;;4.50;1.50;;;;;;;;;;5038830;28;20264;-52
2022/07/10 05:53:05;;;;;;;4.50;1.55;;;;;;;;;;5039527;28;20236;-51
2022/07/10 05:55:33;;;;;;;4.93;1.23;;;;;;;;;;5044547;28;20241;-53
2022/07/10 05:57:59;;;;;;;4.72;1.35;;;;;;;;;;5044629;28;20232;-53
2022/07/10 06:00:26;;;;;;;3.50;1.40;;;;;;;;;;5044676;28;20289;-52
2022/07/10 06:02:52;;;;;;;3.67;1.40;;;;;;;;;;5044777;28;20240;-53
2022/07/10 06:05:18;;;;;;;4.13;1.20;;;;;;;;;;5045536;28;20236;-52
2022/07/10 06:07:45;;;;;;;1.25;1.02;;;;;;;;;;5035052;28;20247;-52
2022/07/10 06:10:11;;;;;;;3.85;1.60;;;;;;;;;;5030294;28;20232;-52
2022/07/10 06:12:39;;;;;;;2.85;1.00;;;;;;;;;;5045210;28;20785;-51
2022/07/10 06:15:06;;;;;;;2.40;1.00;;;;;;;;;;5045539;28;20240;-52
2022/07/10 06:17:32;;;;;;;7.72;1.38;;;;;;;;;;5040860;28;20318;-52
2022/07/10 06:19:58;;;;;;;2.53;1.25;;;;;;;;;;5038430;28;20622;-51
2022/07/10 06:22:34;;;;;;;2.25;1.10;;;;;;;;;;5029356;28;20236;-51
2022/07/10 06:25:01;;;;;;;4.78;1.00;;;;;;;;;;5019139;28;20738;-53
2022/07/10 06:27:28;;;;;;;4.63;1.58;;;;;;;;;;5029277;28;20244;-52
2022/07/10 06:29:56;;;;;;;6.00;1.38;;;;;;;;;;5028021;28;20241;-52
2022/07/10 06:32:24;;;;;;;1.98;1.75;;;;;;;;;;5034461;28;20720;-53
2022/07/10 06:34:50;;;;;;;4.75;1.33;;;;;;;;;;5028383;28;20236;-54
2022/07/10 06:37:16;;;;;;;2.35;1.00;;;;;;;;;;5027906;28;20232;-53
2022/07/10 06:39:43;;;;;;;3.67;1.25;;;;;;;;;;5027020;28;20279;-52
2022/07/10 06:42:09;;;;;;;2.60;1.38;;;;;;;;;;5020163;28;20243;-53
2022/07/10 06:44:36;;;;;;;4.50;1.42;;;;;;;;;;5027686;28;20587;-53
2022/07/10 06:49:48;;;;;;;1.92;1.20;;;;;;;;;;5043986;28;20633;-54
2022/07/10 06:52:14;;;;;;;2.83;1.27;;;;;;;;;;5047019;28;20323;-52
2022/07/10 06:54:41;;;;;;;3.00;1.25;;;;;;;;;;5046967;28;20251;-52
2022/07/10 06:57:07;;;;;;;4.13;1.70;;;;;;;;;;5046534;28;20236;-55
2022/07/10 06:59:34;;;;;;;4.78;1.13;;;;;;;;;;5039131;28;20255;-52
2022/07/10 07:02:01;;;;;;;4.82;1.50;;;;;;;;;;5044456;28;20244;-52
2022/07/10 07:04:28;;;;;;;2.08;1.08;;;;;;;;;;5047295;28;20246;-53
2022/07/10 07:06:55;;;;;;;5.85;1.55;;;;;;;;;;5039455;28;20558;-52
2022/07/10 07:09:21;;;;;;;5.28;1.45;;;;;;;;;;5032618;28;20235;-52
2022/07/10 07:11:47;;;;;;;7.40;1.98;;;;;;;;;;5043284;28;20244;-53
2022/07/10 07:14:14;;;;;;;3.50;1.45;;;;;;;;;;5024638;28;20907;-53
2022/07/10 07:16:42;;;;;;;4.60;1.40;;;;;;;;;;5028855;28;20236;-51
2022/07/10 07:19:10;;;;;;;2.90;1.30;;;;;;;;;;5041496;28;20239;-53
2022/07/10 07:24:21;;;;;;;3.90;1.75;;;;;;;;;;5043293;28;20614;-52
2022/07/10 07:26:48;;;;;;;5.03;1.35;;;;;;;;;;5037802;28;20494;-51
2022/07/10 07:29:15;;;;;;;3.03;1.00;;;;;;;;;;5045474;28;20234;-53
2022/07/10 07:31:41;;;;;;;3.40;0.98;;;;;;;;;;5044813;28;20608;-52
2022/07/10 07:34:07;;;;;;;6.53;2.17;;;;;;;;;;5047222;28;20243;-52
2022/07/10 07:36:34;;;;;;;2.50;1.38;;;;;;;;;;5046579;28;20243;-55
2022/07/10 07:39:02;;;;;;;4.88;1.90;;;;;;;;;;5033945;28;20626;-53
2022/07/10 07:41:28;;;;;;;4.47;1.35;;;;;;;;;;5026335;28;20246;-51
2022/07/10 07:43:55;;;;;;;3.17;1.13;;;;;;;;;;5047864;28;20249;-51
2022/07/10 07:46:21;;;;;;;6.72;1.35;;;;;;;;;;5059942;28;20231;-52
2022/07/10 07:48:47;;;;;;;2.97;1.35;;;;;;;;;;5028332;28;20314;-54
2022/07/10 07:51:14;;;;;;;5.10;1.33;;;;;;;;;;5035080;28;20243;-52
2022/07/10 07:53:40;;;;;;;2.47;1.33;;;;;;;;;;5045717;28;20267;-52
2022/07/10 07:56:08;;;;;;;3.03;1.60;;;;;;;;;;5047467;28;20713;-52
2022/07/10 07:58:34;;;;;;;3.45;1.08;;;;;;;;;;5049693;28;20685;-53
2022/07/10 08:01:01;;;;;;;10.35;1.80;;;;;;;;;;5042958;28;20290;-53
2022/07/10 08:03:27;;;;;;;4.93;1.27;;;;;;;;;;5031510;28;20316;-53
2022/07/10 08:05:53;;;;;;;5.40;1.85;;;;;;;;;;5027970;28;20323;-53
2022/07/10 08:08:20;;;;;;;4.03;1.63;;;;;;;;;;5041552;28;20583;-52
2022/07/10 08:10:46;;;;;;;1.90;0.80;;;;;;;;;;5046593;28;20242;-51
2022/07/10 08:13:14;;;;;;;3.50;1.23;;;;;;;;;;5046022;28;20240;-51
2022/07/10 08:15:40;;;;;;;3.75;1.02;;;;;;;;;;5036509;28;20246;-53
2022/07/10 08:18:07;;;;;;;2.60;1.00;;;;;;;;;;5030761;28;20235;-52
2022/07/10 08:20:33;;;;;;;6.40;1.40;;;;;;;;;;5043825;28;20232;-52
2022/07/10 08:22:59;;;;;;;5.95;1.70;;;;;;;;;;5039896;28;20251;-53
2022/07/10 08:25:26;;;;;;;2.65;1.23;;;;;;;;;;5026434;28;20228;-53
2022/07/10 08:27:53;;;;;;;5.07;1.52;;;;;;;;;;5026081;28;20228;-53
2022/07/10 08:30:21;;;;;;;4.82;1.23;;;;;;;;;;5025358;28;20243;-53
2022/07/10 08:32:49;;;;;;;6.10;1.55;;;;;;;;;;5017062;28;20240;-51
2022/07/10 08:35:15;;;;;;;6.10;1.52;;;;;;;;;;5060336;28;20227;-53
2022/07/10 08:37:42;;;;;;;4.70;1.25;;;;;;;;;;5036888;28;20240;-52
2022/07/10 08:40:09;;;;;;;5.43;1.52;;;;;;;;;;5039604;28;20239;-52
2022/07/10 08:42:36;;;;;;;6.88;1.80;;;;;;;;;;5042557;28;20243;-53
2022/07/10 08:45:02;;;;;;;6.55;1.75;;;;;;;;;;5045644;28;20235;-52
2022/07/10 08:47:31;;;;;;;2.42;1.30;;;;;;;;;;5046278;28;20314;-52
2022/07/10 08:49:58;;;;;;;7.05;1.60;;;;;;;;;;5045411;28;20289;-52
2022/07/10 08:52:26;;;;;;;2.75;1.48;;;;;;;;;;5045744;28;20594;-53
2022/07/10 08:54:53;;;;;;;2.50;1.15;;;;;;;;;;5036149;28;20236;-51
2022/07/10 08:57:19;;;;;;;5.32;1.65;;;;;;;;;;5033109;28;20267;-52
2022/07/10 08:59:45;;;;;;;5.13;1.50;;;;;;;;;;5036300;28;20318;-52
2022/07/10 09:02:12;;;;;;;6.53;2.30;;;;;;;;;;5040886;28;20239;-53
2022/07/10 09:04:39;;;;;;;6.07;1.67;;;;;;;;;;5046285;28;20247;-52
2022/07/10 09:07:06;;;;;;;6.72;1.73;;;;;;;;;;5026198;28;20229;-51
2022/07/10 09:09:32;;;;;;;4.68;1.25;;;;;;;;;;5024654;28;20240;-52
2022/07/10 09:11:59;;;;;;;5.57;1.27;;;;;;;;;;5021290;28;20260;-53
2022/07/10 09:14:27;;;;;;;3.38;1.23;;;;;;;;;;5018987;28;20243;-52
2022/07/10 09:16:54;;;;;;;3.03;1.45;;;;;;;;;;5025640;28;20265;-52
2022/07/10 09:19:21;;;;;;;2.55;1.58;;;;;;;;;;5036809;28;20238;-51
2022/07/10 09:21:49;;;;;;;5.03;1.35;;;;;;;;;;5066043;28;20717;-53
2022/07/10 09:24:19;;;;;;;4.18;1.60;;;;;;;;;;5053403;28;20227;-51
2022/07/10 09:26:48;;;;;;;4.15;1.92;;;;;;;;;;5059213;28;20239;-53
2022/07/10 09:29:14;;;;;;;3.05;1.25;;;;;;;;;;5037916;28;20239;-54
2022/07/10 09:31:50;;;;;;;4.13;1.05;;;;;;;;;;5042237;28;20239;-52
2022/07/10 09:34:17;;;;;;;4.65;2.08;;;;;;;;;;5045371;28;20327;-52
2022/07/10 09:36:44;;;;;;;8.23;1.77;;;;;;;;;;5045393;28;20236;-52
2022/07/10 09:39:11;;;;;;;3.72;1.40;;;;;;;;;;5044407;28;20598;-54
2022/07/10 09:41:38;;;;;;;3.72;1.10;;;;;;;;;;5045856;28;20235;-53
2022/07/10 09:44:06;;;;;;;4.40;1.65;;;;;;;;;;5045303;28;20232;-52
2022/07/10 09:46:33;;;;;;;4.75;1.88;;;;;;;;;;5036115;28;20702;-53
2022/07/10 09:49:03;;;;;;;3.05;1.70;;;;;;;;;;5037507;28;20236;-52
2022/07/10 09:51:31;;;;;;;7.10;2.45;;;;;;;;;;5054529;28;20986;-52
2022/07/10 09:53:58;;;;;;;4.60;2.03;;;;;;;;;;5048813;28;20236;-54
2022/07/10 09:56:26;;;;;;;4.55;1.35;;;;;;;;;;5048243;28;20232;-52
2022/07/10 09:58:53;;;;;;;5.10;1.75;;;;;;;;;;5039543;28;20232;-51
2022/07/10 10:01:20;;;;;;;9.05;1.98;;;;;;;;;;5040999;28;20243;-54
2022/07/10 10:03:48;;;;;;;4.65;1.45;;;;;;;;;;5039834;28;20659;-51
2022/07/10 10:06:16;;;;;;;4.88;1.20;;;;;;;;;;5016715;28;20239;-51
2022/07/10 10:08:48;;;;;;;4.13;1.23;;;;;;;;;;5018461;28;20243;-52
2022/07/10 10:11:16;;;;;;;4.20;1.30;;;;;;;;;;5046560;28;20232;-52
2022/07/10 10:13:44;;;;;;;4.25;1.40;;;;;;;;;;5041015;28;20239;-52
2022/07/10 10:16:11;;;;;;;4.22;1.63;;;;;;;;;;5049139;28;20240;-52
2022/07/10 10:20:36;;;;;;;5.65;1.90;;;;;;;;;;5036746;28;20239;-52
2022/07/10 10:21:23;;;;;;;5.85;1.60;;;;;;;;;;5037924;28;20236;-50
2022/07/10 10:23:51;;;;;;;4.53;1.60;;;;;;;;;;5028865;28;20228;-52
2022/07/10 10:26:18;;;;;;;2.97;1.48;;;;;;;;;;5028896;28;20233;-53
2022/07/10 10:28:45;;;;;;;3.78;1.15;;;;;;;;;;5027964;28;20232;-54
2022/07/10 10:31:12;;;;;;;4.63;1.73;;;;;;;;;;5024136;28;20734;-52
2022/07/10 10:33:44;;;;;;;4.82;1.63;;;;;;;;;;5016487;28;20245;-52
2022/07/10 10:36:11;;;;;;;4.50;1.27;;;;;;;;;;5017560;28;20259;-52
2022/07/10 10:38:57;;;;;;;2.42;1.02;;;;;;;;;;5022918;28;20275;-52
2022/07/10 10:41:23;;;;;;;3.28;1.48;;;;;;;;;;5052937;28;20266;-53
2022/07/10 10:44:20;;;;;;;2.92;1.20;;;;;;;;;;5047715;28;20304;-52
2022/07/10 10:46:56;;;;;;;6.10;1.92;;;;;;;;;;5040440;28;20314;-52
2022/07/10 10:49:24;;;;;;;3.70;1.90;;;;;;;;;;5047031;28;20470;-52
2022/07/10 10:51:57;;;;;;;2.45;1.88;;;;;;;;;;5042479;28;20284;-52
2022/07/10 10:54:24;;;;;;;3.55;1.40;;;;;;;;;;5036142;28;20233;-53
2022/07/10 10:57:11;;;;;;;5.78;1.25;;;;;;;;;;5027464;28;20609;-53
2022/07/10 10:59:49;;;;;;;5.82;1.55;;;;;;;;;;5024315;28;20243;-52
2022/07/10 11:02:22;;;;;;;3.72;1.63;;;;;;;;;;5026734;28;20242;-55
2022/07/10 11:04:49;;;;;;;3.33;1.20;;;;;;;;;;5026640;28;20248;-52
2022/07/10 11:07:40;;;;;;;4.18;1.38;;;;;;;;;;5037263;28;20224;-53
2022/07/10 11:10:22;;;;;;;3.20;1.60;;;;;;;;;;5036962;28;20626;-52
2022/07/10 11:13:00;;;;;;;4.07;1.95;;;;;;;;;;5033795;28;20266;-53
2022/07/10 11:15:30;;;;;;;2.40;1.52;;;;;;;;;;5045147;28;20240;-52
2022/07/10 11:17:56;;;;;;;5.18;2.58;;;;;;;;;;5047118;28;20259;-54
2022/07/10 11:20:23;;;;;;;6.55;2.13;;;;;;;;;;5046004;28;20239;-52
2022/07/10 11:22:53;;;;;;;4.63;1.95;;;;;;;;;;5046644;28;20239;-52
2022/07/10 11:25:35;;;;;;;3.83;2.00;;;;;;;;;;5047367;28;20717;-53
2022/07/10 11:28:08;;;;;;;4.35;2.35;;;;;;;;;;5037030;28;20237;-53
2022/07/10 11:30:45;;;;;;;3.60;2.00;;;;;;;;;;5033074;28;20224;-52
2022/07/10 11:33:11;;;;;;;5.10;2.05;;;;;;;;;;5026465;28;20239;-53
2022/07/10 11:35:38;;;;;;;6.45;1.95;;;;;;;;;;5035543;28;20247;-53
2022/07/10 11:38:05;;;;;;;6.32;2.17;;;;;;;;;;5046627;28;20732;-51
2022/07/10 11:40:31;;;;;;;4.28;1.42;;;;;;;;;;5035365;28;20238;-52
2022/07/10 11:42:59;;;;;;;5.88;1.92;;;;;;;;;;5040169;28;20228;-52
2022/07/10 11:45:27;;;;;;;8.27;2.40;;;;;;;;;;5040392;28;20719;-53
2022/07/10 11:47:55;;;;;;;5.15;1.73;;;;;;;;;;5046867;28;20236;-53
2022/07/10 11:50:22;;;;;;;3.90;1.25;;;;;;;;;;5035765;28;20649;-53
2022/07/10 11:52:49;;;;;;;3.92;3.10;;;;;;;;;;5044841;28;20236;-52
2022/07/10 11:55:16;;;;;;;5.38;3.05;;;;;;;;;;5048020;28;20239;-53
2022/07/10 11:57:44;;;;;;;5.70;2.78;;;;;;;;;;5038976;28;20705;-52
2022/07/10 12:00:23;;;;;;;6.70;2.72;;;;;;;;;;5050006;28;20710;-52
2022/07/10 12:02:49;;;;;;;3.92;2.63;;;;;;;;;;5042582;28;20231;-52
2022/07/10 12:05:31;;;;;;;5.53;1.60;;;;;;;;;;5043289;28;20258;-51
2022/07/10 12:07:59;;;;;;;4.28;2.42;;;;;;;;;;5046412;28;20247;-53
2022/07/10 12:10:26;;;;;;;6.97;3.20;;;;;;;;;;5045547;28;20231;-51
2022/07/10 12:12:52;;;;;;;5.18;2.28;;;;;;;;;;5045995;28;20243;-53
2022/07/10 12:15:31;;;;;;;4.78;2.28;;;;;;;;;;5033995;28;20242;-52
2022/07/10 12:17:57;;;;;;;4.32;2.00;;;;;;;;;;5039132;28;20543;-51
2022/07/10 12:20:24;;;;;;;5.07;2.15;;;;;;;;;;5037778;28;20715;-53
2022/07/10 12:22:53;;;;;;;4.38;2.55;;;;;;;;;;5066180;28;20235;-53
2022/07/10 12:25:21;;;;;;;4.63;2.80;;;;;;;;;;5058041;28;20732;-51
2022/07/10 12:27:47;;;;;;;4.75;3.40;;;;;;;;;;5060892;28;20224;-53
2022/07/10 12:30:13;;;;;;;6.05;3.15;;;;;;;;;;5034325;28;20256;-51
2022/07/10 12:32:40;;;;;;;4.30;2.05;;;;;;;;;;5036913;28;20326;-52
2022/07/10 12:35:12;;;;;;;5.72;2.03;;;;;;;;;;5018169;28;20241;-53
2022/07/10 12:37:47;;;;;;;6.05;2.45;;;;;;;;;;5043839;28;20677;-52
2022/07/10 12:40:30;;;;;;;2.28;1.13;;;;;;;;;;5044656;28;20231;-52
2022/07/10 12:43:03;;;;;;;5.03;1.58;;;;;;;;;;5045911;28;20235;-52
2022/07/10 12:45:29;;;;;;;4.05;1.40;;;;;;;;;;5045980;28;20232;-52
2022/07/10 12:47:56;;;;;;;4.80;1.52;;;;;;;;;;5038403;28;20236;-53
2022/07/10 12:50:25;;;;;;;4.78;1.55;;;;;;;;;;5036653;28;20231;-53
2022/07/10 12:53:07;;;;;;;7.30;2.47;;;;;;;;;;5023519;28;20323;-53
2022/07/10 12:55:37;;;;;;;5.93;3.33;;;;;;;;;;5024483;28;20711;-52
2022/07/10 12:58:12;;;;;;;3.78;1.98;;;;;;;;;;5020706;28;20638;-52
2022/07/10 13:00:44;;;;;;;5.70;3.25;;;;;;;;;;5045383;28;20320;-51
2022/07/10 13:03:18;;;;;;;6.15;2.80;;;;;;;;;;5044919;28;20320;-54
2022/07/10 13:05:44;;;;;;;4.50;2.20;;;;;;;;;;5025771;28;20244;-51
2022/07/10 13:08:12;;;;;;;4.20;2.53;;;;;;;;;;5044562;28;20243;-52
2022/07/10 13:10:39;;;;;;;6.60;4.00;;;;;;;;;;5045324;28;20236;-52
2022/07/10 13:13:07;;;;;;;5.60;3.13;;;;;;;;;;5045142;28;20236;-52
2022/07/10 13:15:39;;;;;;;4.22;3.30;;;;;;;;;;5037263;28;20240;-51
2022/07/10 13:18:05;;;;;;;10.90;3.80;;;;;;;;;;5042145;28;20274;-52
2022/07/10 13:20:32;;;;;;;7.28;3.53;;;;;;;;;;5043686;28;20755;-52
2022/07/10 13:22:58;;;;;;;4.07;2.60;;;;;;;;;;5037585;28;20321;-51
2022/07/10 13:25:25;;;;;;;5.28;3.13;;;;;;;;;;5024979;28;20266;-53
2022/07/10 13:27:51;;;;;;;4.75;1.63;;;;;;;;;;5024533;28;20621;-52
2022/07/10 13:30:19;;;;;;;5.18;1.98;;;;;;;;;;5024408;28;20735;-52
2022/07/10 13:32:49;;;;;;;6.43;2.38;;;;;;;;;;5024202;28;20236;-52
2022/07/10 13:35:15;;;;;;;5.07;3.90;;;;;;;;;;5024574;28;20236;-52
2022/07/10 13:37:42;;;;;;;4.13;3.47;;;;;;;;;;5032554;28;20236;-53
2022/07/10 13:40:09;;;;;;;5.80;2.53;;;;;;;;;;5040461;28;20236;-52
2022/07/10 13:42:35;;;;;;;4.40;2.92;;;;;;;;;;5037051;28;20236;-53
2022/07/10 13:45:01;;;;;;;7.07;3.53;;;;;;;;;;5031457;28;20262;-52
2022/07/10 13:47:29;;;;;;;6.78;3.88;;;;;;;;;;5031956;28;20240;-52
2022/07/10 13:49:55;;;;;;;3.97;2.42;;;;;;;;;;5025529;28;20237;-53
2022/07/10 13:52:22;;;;;;;7.53;5.18;;;;;;;;;;5039721;28;20242;-52
2022/07/10 13:54:48;;;;;;;6.82;3.22;;;;;;;;;;5026124;28;20263;-52
2022/07/10 13:57:14;;;;;;;3.28;1.85;;;;;;;;;;5024906;28;20232;-53
2022/07/10 13:59:41;;;;;;;3.63;1.75;;;;;;;;;;5041032;28;20239;-51
2022/07/10 14:02:07;;;;;;;3.72;1.90;;;;;;;;;;5043975;28;20231;-51
2022/07/10 14:04:34;;;;;;;5.00;1.70;;;;;;;;;;5040469;28;20242;-51
2022/07/10 14:07:01;;;;;;;3.92;1.60;;;;;;;;;;5043476;28;20243;-52
2022/07/10 14:09:28;;;;;;;3.38;2.42;;;;;;;;;;5062016;28;20246;-53
2022/07/10 14:11:54;;;;;;;5.97;2.67;;;;;;;;;;5033345;28;21347;-53
2022/07/10 14:14:21;;;;;;;6.07;3.47;;;;;;;;;;5032589;28;20244;-53
2022/07/10 14:16:49;;;;;;;3.63;2.80;;;;;;;;;;5041450;28;20239;-52
2022/07/10 14:19:15;;;;;;;5.55;1.98;;;;;;;;;;5051604;28;20239;-52
2022/07/10 14:21:43;;;;;;;4.25;1.88;;;;;;;;;;5042867;28;20235;-55
2022/07/10 14:24:10;;;;;;;2.33;1.13;;;;;;;;;;5044947;28;20262;-51
2022/07/10 14:26:36;;;;;;;2.38;1.15;;;;;;;;;;5044001;28;20238;-53
2022/07/10 14:29:03;;;;;;;6.07;1.30;;;;;;;;;;5041010;28;20285;-52
2022/07/10 14:31:29;;;;;;;4.20;2.00;;;;;;;;;;5035610;28;20236;-52
2022/07/10 14:33:56;;;;;;;6.72;3.28;;;;;;;;;;5025589;28;20295;-52
2022/07/10 14:36:26;;;;;;;4.90;2.58;;;;;;;;;;5029559;28;20236;-52
2022/07/10 14:38:53;;;;;;;4.65;1.45;;;;;;;;;;5028369;28;20614;-53
2022/07/10 14:41:20;;;;;;;2.97;1.33;;;;;;;;;;5027960;28;20255;-52
2022/07/10 14:43:47;;;;;;;4.95;1.40;;;;;;;;;;5027943;28;20248;-52
2022/07/10 14:46:13;;;;;;;3.55;1.15;;;;;;;;;;5023865;28;20228;-51
2022/07/10 14:48:39;;;;;;;2.63;1.52;;;;;;;;;;5023438;28;20239;-53
2022/07/10 14:51:07;;;;;;;4.57;1.77;;;;;;;;;;5020312;28;20232;-52
2022/07/10 14:53:35;;;;;;;4.43;1.65;;;;;;;;;;5031070;28;20240;-51